hintergrundbild

 METAR AND TAF INFORMATION
METAR FOR LYTV
ADDS - METARS form results

(1235 UTC 28 March 2020)
Data provider http://aviationweather.gov/metar/data/
 
METAR text: LYTV 281230Z VRB01KT 9999 -RA SCT023 OVC080 13/10 Q1012 NOSIG
Conditions at: LYTV (TIVAT , CS) observed 1230 UTC 28 March 2020
Temperature: 13.0°C (55°F)
Dewpoint: 10.0°C (50°F) [RH = 82%]
Pressure (altimeter): 29.88 inches Hg (1012.0 mb)
Winds: variable direction winds at 1 MPH (1 knots; 0.5 m/s)
Visibility: 6 or more miles (10+ km)
Ceiling: 8000 feet AGL
Clouds: scattered clouds at 2300 feet AGL
overcast cloud deck at 8000 feet AGL
Weather: -RA  (light rain)

METAR text: LYTV 281200Z VRB02KT 9999 -RA SCT023 OVC080 13/10 Q1013 NOSIG
Conditions at: LYTV (TIVAT , CS) observed 1200 UTC 28 March 2020
Temperature: 13.0°C (55°F)
Dewpoint: 10.0°C (50°F) [RH = 82%]
Pressure (altimeter): 29.91 inches Hg (1013.0 mb)
Winds: variable direction winds at 2 MPH (2 knots; 1.0 m/s)
Visibility: 6 or more miles (10+ km)
Ceiling: 8000 feet AGL
Clouds: scattered clouds at 2300 feet AGL
overcast cloud deck at 8000 feet AGL
Weather: -RA  (light rain)

Forecast for: LYTV (TIVAT , CS)
Text: TAF LYTV 281100Z 2812/2912 12008KT 9999 SCT027 BKN083 TX16/2813Z TN07/2904Z
Forecast period: 1200 UTC 28 March 2020 to 1200 UTC 29 March 2020
Forecast type: FROM: standard forecast or significant change
Winds: from the ESE (120 degrees) at 9 MPH (8 knots; 4.1 m/s)
Visibility: 6 or more miles 10+ km)
Ceiling: 8300 feet AGL
Clouds: scattered clouds at 2700 feet AGL
broken clouds at 8300 feet AGL
Weather: no significant weather forecast for this period

 AIRPORT MAP

 RUNWAY INFORMATION
Runway 14 Runway length 8208 ft Runway width 148 ft
Runway elevation 7 ft Runway displaced threshold 0 ft Runway heading 139
Runway 32 Runway length 8208 ft Runway width 148 ft
Runway elevation 16 ft Runway displaced threshold 0 ft Runway heading 319

 AIRPORT FREQUENCIES
Type ARR Name APP Frequency 118 MHZ
Type TWR Name TWR Frequency 118 MHZ

 AIRPORT NEAR NAVIGATION AIDS
Type NDB Name Tivat Frequency 345 KHZ



Impressum